Aviation Weather View - Albury, NSW
Albury
METAR YMAY 211800Z 00000KT 9999 03/03 Q1014
ADVISORY INFORMATION ONLY.
Information and images sourced on a "best effort" basis from
our own station 2.7NM north of the field at 1016ft AMSL.
Weather information is NOT from the Albury Airport.

Contact Ross on 0409-578-660
Updated 1811Z (22-Apr-2021 at 04:11:08 local)
Temperature 5.1 Deg C
QNH is 1014
Humidity is 100% RH
Dewpoint is 5.1 Deg C
Estimated Cloudbase is BELOW 1000 feet amsl
Wind: Calm
Solar Insolation: 0 W/m^2

TWR: 123.25 SMC: 121.8 AWIS: 134.525 ATIS: 115.6/133.85 Map
How to interpret the wind rose
Wind Rose
Solar Radiation Decoded METAR data
Albury Airport (94896, YMAY)
WMO Index: 95896
ID Name: YMAY
Date/Time: 21-Apr-2021 1800 UTC
Lat/Lon: 36.07S 146.95E
Wind: 000 deg true at 00.0 knots
Temperature: 3.1 deg C
Dewpoint: 3.1 deg C
QNH: 1014.6
Rain since 9am: 0.0
Rain last 10 mins: 0.0
Visibility: -9999 metres
AutoVisibility: 10000 metres
Max Wind Gust last 10 mins: 00.0 knots

Calculated humidity: 100.0 %RH